Time,TemperatureF,DewpointF,PressureIn,WindDirection,WindDirectionDegrees,WindSpeedMPH,WindSpeedGustMPH,Humidity,HourlyPrecipIn,Conditions,Clouds,dailyrainin,SoftwareType,DateUTC
2013-05-03 00:01:00,61.6,51.4,30.16,SE,135,0.0,1.1,69,0.00,,,0.00,WUHU216HW,2013-05-03 04:01:00,
2013-05-03 00:06:00,61.4,51.2,30.16,ESE,113,0.0,1.1,69,0.00,,,0.00,WUHU216HW,2013-05-03 04:06:00,
2013-05-03 00:11:00,61.4,51.2,30.16,ESE,113,0.0,0.9,69,0.00,,,0.00,WUHU216HW,2013-05-03 04:11:00,
2013-05-03 00:16:00,61.2,51.0,30.16,SE,135,0.2,0.9,69,0.00,,,0.00,WUHU216HW,2013-05-03 04:16:00,
2013-05-03 00:21:00,61.0,50.9,30.15,ESE,113,0.4,0.9,69,0.00,,,0.00,WUHU216HW,2013-05-03 04:21:00,
2013-05-03 00:26:00,61.0,50.9,30.15,SE,135,0.7,0.9,69,0.00,,,0.00,WUHU216HW,2013-05-03 04:26:00,
2013-05-03 00:31:00,60.8,50.7,30.15,SE,135,0.7,0.9,69,0.00,,,0.00,WUHU216HW,2013-05-03 04:31:00,
2013-05-03 00:36:00,60.8,50.7,30.15,SE,135,0.4,0.9,69,0.00,,,0.00,WUHU216HW,2013-05-03 04:36:00,
2013-05-03 00:41:00,60.8,51.1,30.15,SE,135,0.4,1.3,70,0.00,,,0.00,WUHU216HW,2013-05-03 04:41:00,
2013-05-03 00:46:00,60.7,50.9,30.15,SE,135,0.4,1.3,70,0.00,,,0.00,WUHU216HW,2013-05-03 04:46:00,
2013-05-03 00:51:00,60.7,50.9,30.15,SE,135,0.0,1.3,70,0.00,,,0.00,WUHU216HW,2013-05-03 04:51:00,
2013-05-03 00:56:00,60.7,50.9,30.15,ESE,113,0.0,1.1,70,0.00,,,0.00,WUHU216HW,2013-05-03 04:56:00,
2013-05-03 01:01:00,60.5,50.8,30.15,ESE,113,0.4,1.1,70,0.00,,,0.00,WUHU216HW,2013-05-03 05:01:00,
2013-05-03 01:06:00,60.5,50.8,30.15,SE,135,0.2,1.1,70,0.00,,,0.00,WUHU216HW,2013-05-03 05:06:00,
2013-05-03 01:11:00,60.3,50.6,30.15,SE,135,0.9,1.1,70,0.00,,,0.00,WUHU216HW,2013-05-03 05:11:00,
2013-05-03 01:16:00,60.3,50.6,30.15,SE,135,1.1,2.0,70,0.00,,,0.00,WUHU216HW,2013-05-03 05:16:00,
2013-05-03 01:21:00,60.3,50.9,30.14,SSE,158,0.2,2.0,71,0.00,,,0.00,WUHU216HW,2013-05-03 05:21:00,
2013-05-03 01:26:00,60.1,50.8,30.14,SE,135,0.4,1.6,71,0.00,,,0.00,WUHU216HW,2013-05-03 05:26:00,
2013-05-03 01:31:00,60.1,50.8,30.14,WNW,293,0.0,1.6,71,0.00,,,0.00,WUHU216HW,2013-05-03 05:31:00,
2013-05-03 01:36:00,60.1,51.1,30.14,SE,135,0.4,1.6,72,0.00,,,0.00,WUHU216HW,2013-05-03 05:36:00,
2013-05-03 01:41:00,59.9,50.9,30.13,ESE,113,0.4,0.7,72,0.00,,,0.00,WUHU216HW,2013-05-03 05:41:00,
2013-05-03 01:46:00,59.8,50.8,30.13,SE,135,0.0,0.7,72,0.00,,,0.00,WUHU216HW,2013-05-03 05:46:00,
2013-05-03 01:51:00,59.8,50.8,30.13,SE,135,0.0,0.7,72,0.00,,,0.00,WUHU216HW,2013-05-03 05:51:00,
2013-05-03 01:56:00,59.6,50.6,30.13,SE,135,0.4,1.8,72,0.00,,,0.00,WUHU216HW,2013-05-03 05:56:00,
2013-05-03 02:01:00,59.6,50.9,30.13,SE,135,1.1,1.8,73,0.00,,,0.00,WUHU216HW,2013-05-03 06:01:00,
2013-05-03 02:06:00,59.6,50.9,30.13,SE,135,0.7,1.8,73,0.00,,,0.00,WUHU216HW,2013-05-03 06:06:00,
2013-05-03 02:11:00,59.4,50.8,30.13,ESE,113,0.2,1.1,73,0.00,,,0.00,WUHU216HW,2013-05-03 06:11:00,
2013-05-03 02:16:00,59.4,50.8,30.13,SE,135,0.2,1.1,73,0.00,,,0.00,WUHU216HW,2013-05-03 06:16:00,
2013-05-03 02:21:00,59.4,50.8,30.13,ESE,113,0.0,1.1,73,0.00,,,0.00,WUHU216HW,2013-05-03 06:21:00,
2013-05-03 02:26:00,59.4,50.8,30.12,SE,135,0.0,1.1,73,0.00,,,0.00,WUHU216HW,2013-05-03 06:26:00,
2013-05-03 02:31:00,59.4,50.8,30.12,SE,135,0.0,0.9,73,0.00,,,0.00,WUHU216HW,2013-05-03 06:31:00,
2013-05-03 02:36:00,59.2,50.6,30.12,ESE,113,0.2,0.9,73,0.00,,,0.00,WUHU216HW,2013-05-03 06:36:00,
2013-05-03 02:41:00,59.0,50.4,30.12,SE,135,0.0,1.1,73,0.00,,,0.00,WUHU216HW,2013-05-03 06:41:00,
2013-05-03 02:46:00,59.0,50.4,30.12,SE,135,0.0,1.1,73,0.00,,,0.00,WUHU216HW,2013-05-03 06:46:00,
2013-05-03 02:51:00,58.9,50.2,30.12,SE,135,0.0,1.1,73,0.00,,,0.00,WUHU216HW,2013-05-03 06:51:00,
2013-05-03 02:56:00,58.9,50.2,30.12,ESE,113,0.7,0.9,73,0.00,,,0.00,WUHU216HW,2013-05-03 06:56:00,
2013-05-03 03:01:00,58.7,50.4,30.12,East,90,0.0,0.9,74,0.00,,,0.00,WUHU216HW,2013-05-03 07:01:00,
2013-05-03 03:06:00,58.7,50.4,30.12,SE,135,0.0,0.7,74,0.00,,,0.00,WUHU216HW,2013-05-03 07:06:00,
2013-05-03 03:11:00,58.7,50.4,30.12,SE,135,0.0,0.7,74,0.00,,,0.00,WUHU216HW,2013-05-03 07:11:00,
2013-05-03 03:16:00,58.5,50.2,30.12,SE,135,0.0,0.4,74,0.00,,,0.00,WUHU216HW,2013-05-03 07:16:00,
2013-05-03 03:21:00,58.3,50.4,30.12,SE,135,0.2,0.4,75,0.00,,,0.00,WUHU216HW,2013-05-03 07:21:00,
2013-05-03 03:26:00,58.3,50.4,30.11,SE,135,0.4,0.7,75,0.00,,,0.00,WUHU216HW,2013-05-03 07:26:00,
2013-05-03 03:31:00,58.1,50.2,30.11,SE,135,0.0,0.7,75,0.00,,,0.00,WUHU216HW,2013-05-03 07:31:00,
2013-05-03 03:36:00,58.0,50.0,30.12,SE,135,0.0,0.4,75,0.00,,,0.00,WUHU216HW,2013-05-03 07:36:00,
2013-05-03 03:41:00,58.0,50.0,30.12,East,90,0.0,0.4,75,0.00,,,0.00,WUHU216HW,2013-05-03 07:41:00,
2013-05-03 03:46:00,58.0,50.0,30.12,ESE,113,0.0,0.4,75,0.00,,,0.00,WUHU216HW,2013-05-03 07:46:00,
2013-05-03 03:51:00,57.8,50.2,30.12,ESE,113,0.0,0.4,76,0.00,,,0.00,WUHU216HW,2013-05-03 07:51:00,
2013-05-03 03:56:00,57.8,50.2,30.12,ESE,113,0.0,0.4,76,0.00,,,0.00,WUHU216HW,2013-05-03 07:56:00,
2013-05-03 04:01:00,57.6,50.0,30.11,ESE,113,0.0,0.4,76,0.00,,,0.00,WUHU216HW,2013-05-03 08:01:00,
2013-05-03 04:06:00,57.6,50.0,30.11,East,90,0.0,0.9,76,0.00,,,0.00,WUHU216HW,2013-05-03 08:06:00,
2013-05-03 04:11:00,57.2,49.7,30.11,SSE,158,0.0,1.1,76,0.00,,,0.00,WUHU216HW,2013-05-03 08:11:00,
2013-05-03 04:16:00,57.2,49.7,30.11,ESE,113,0.0,1.1,76,0.00,,,0.00,WUHU216HW,2013-05-03 08:16:00,
2013-05-03 04:21:00,57.2,49.7,30.11,South,180,0.2,1.1,76,0.00,,,0.00,WUHU216HW,2013-05-03 08:21:00,
2013-05-03 04:26:00,57.1,49.5,30.11,SE,135,0.0,1.1,76,0.00,,,0.00,WUHU216HW,2013-05-03 08:26:00,
2013-05-03 04:31:00,57.1,49.9,30.11,ESE,113,0.0,1.1,77,0.00,,,0.00,WUHU216HW,2013-05-03 08:31:00,
2013-05-03 04:36:00,57.1,49.9,30.11,SSW,203,0.4,1.1,77,0.00,,,0.00,WUHU216HW,2013-05-03 08:36:00,
2013-05-03 04:41:00,56.9,49.7,30.11,East,90,0.0,1.1,77,0.00,,,0.00,WUHU216HW,2013-05-03 08:41:00,
2013-05-03 04:46:00,56.9,49.7,30.11,East,90,0.0,1.1,77,0.00,,,0.00,WUHU216HW,2013-05-03 08:46:00,
2013-05-03 04:51:00,56.9,49.7,30.11,ESE,113,0.0,0.4,77,0.00,,,0.00,WUHU216HW,2013-05-03 08:51:00,
2013-05-03 04:56:00,56.7,49.5,30.11,ESE,113,0.0,0.4,77,0.00,,,0.00,WUHU216HW,2013-05-03 08:56:00,
2013-05-03 05:01:00,56.7,49.5,30.11,ESE,113,0.7,0.7,77,0.00,,,0.00,WUHU216HW,2013-05-03 09:01:00,
2013-05-03 05:06:00,56.7,49.5,30.11,SE,135,0.4,0.9,77,0.00,,,0.00,WUHU216HW,2013-05-03 09:06:00,
2013-05-03 05:11:00,56.7,49.5,30.11,SE,135,0.7,1.1,77,0.00,,,0.00,WUHU216HW,2013-05-03 09:11:00,
2013-05-03 05:16:00,56.7,49.5,30.10,SE,135,0.4,1.1,77,0.00,,,0.00,WUHU216HW,2013-05-03 09:16:00,
2013-05-03 05:21:00,56.5,49.7,30.10,SE,135,0.4,1.1,78,0.00,,,0.00,WUHU216HW,2013-05-03 09:21:00,
2013-05-03 05:26:00,56.7,49.9,30.10,SE,135,1.1,1.1,78,0.00,,,0.00,WUHU216HW,2013-05-03 09:26:00,
2013-05-03 05:31:00,56.5,49.7,30.10,ESE,113,0.9,1.1,78,0.00,,,0.00,WUHU216HW,2013-05-03 09:31:00,
2013-05-03 05:36:00,56.5,49.7,30.10,ESE,113,0.4,1.1,78,0.00,,,0.00,WUHU216HW,2013-05-03 09:36:00,
2013-05-03 05:41:00,56.5,49.7,30.10,SE,135,0.4,1.1,78,0.00,,,0.00,WUHU216HW,2013-05-03 09:41:00,
2013-05-03 05:46:00,56.5,49.7,30.10,SSE,158,0.0,1.1,78,0.00,,,0.00,WUHU216HW,2013-05-03 09:46:00,
2013-05-03 05:51:00,56.3,49.5,30.10,ESE,113,0.4,1.1,78,0.00,,,0.00,WUHU216HW,2013-05-03 09:51:00,
2013-05-03 05:56:00,56.3,49.5,30.10,ESE,113,0.0,1.1,78,0.00,,,0.00,WUHU216HW,2013-05-03 09:56:00,
2013-05-03 06:01:00,56.2,49.3,30.10,SE,135,0.7,1.1,78,0.00,,,0.00,WUHU216HW,2013-05-03 10:01:00,
2013-05-03 06:06:00,56.2,49.3,30.10,ESE,113,0.0,0.9,78,0.00,,,0.00,WUHU216HW,2013-05-03 10:06:00,
2013-05-03 06:11:00,56.2,49.3,30.10,SE,135,0.0,0.7,78,0.00,,,0.00,WUHU216HW,2013-05-03 10:11:00,
2013-05-03 06:16:00,56.0,49.5,30.11,SE,135,0.0,0.7,79,0.00,,,0.00,WUHU216HW,2013-05-03 10:16:00,
2013-05-03 06:21:00,56.0,49.5,30.10,East,90,0.2,0.9,79,0.00,,,0.00,WUHU216HW,2013-05-03 10:21:00,
2013-05-03 06:26:00,55.8,49.3,30.11,SE,135,0.4,0.9,79,0.00,,,0.00,WUHU216HW,2013-05-03 10:26:00,
2013-05-03 06:30:00,55.8,49.3,30.11,SE,135,0.0,0.9,79,0.00,,,0.00,WUHU216HW,2013-05-03 10:30:00,
2013-05-03 06:36:00,55.8,49.3,30.11,SE,135,0.0,0.9,79,0.00,,,0.00,WUHU216HW,2013-05-03 10:36:00,
2013-05-03 06:41:00,55.8,49.3,30.11,SE,135,0.4,0.7,79,0.00,,,0.00,WUHU216HW,2013-05-03 10:41:00,
2013-05-03 06:45:00,55.8,49.3,30.10,ESE,113,0.2,0.7,79,0.00,,,0.00,WUHU216HW,2013-05-03 10:45:00,
2013-05-03 06:50:00,55.6,49.1,30.11,SE,135,0.4,0.7,79,0.00,,,0.00,WUHU216HW,2013-05-03 10:50:00,
2013-05-03 06:55:00,55.6,49.1,30.11,SE,135,0.7,1.3,79,0.00,,,0.00,WUHU216HW,2013-05-03 10:55:00,
2013-05-03 07:00:00,55.6,49.1,30.11,ESE,113,0.0,1.3,79,0.00,,,0.00,WUHU216HW,2013-05-03 11:00:00,
2013-05-03 07:05:00,55.8,49.3,30.11,SSE,158,0.0,0.9,79,0.00,,,0.00,WUHU216HW,2013-05-03 11:05:00,
2013-05-03 07:10:00,55.6,49.1,30.11,SE,135,0.2,0.9,79,0.00,,,0.00,WUHU216HW,2013-05-03 11:10:00,
2013-05-03 07:15:00,55.8,49.3,30.11,SE,135,0.4,1.1,79,0.00,,,0.00,WUHU216HW,2013-05-03 11:15:00,
2013-05-03 07:20:00,55.8,49.3,30.11,SE,135,0.9,1.1,79,0.00,,,0.00,WUHU216HW,2013-05-03 11:20:00,
2013-05-03 07:25:00,55.8,49.3,30.11,ESE,113,0.4,1.1,79,0.00,,,0.00,WUHU216HW,2013-05-03 11:25:00,
2013-05-03 07:30:00,56.2,49.7,30.12,ESE,113,0.4,1.3,79,0.00,,,0.00,WUHU216HW,2013-05-03 11:30:00,
2013-05-03 07:35:00,56.3,49.9,30.12,SSE,158,0.7,1.3,79,0.00,,,0.00,WUHU216HW,2013-05-03 11:35:00,
2013-05-03 07:40:00,56.5,50.0,30.12,SE,135,1.1,1.3,79,0.00,,,0.00,WUHU216HW,2013-05-03 11:40:00,
2013-05-03 07:45:00,56.7,50.2,30.12,SE,135,1.1,1.6,79,0.00,,,0.00,WUHU216HW,2013-05-03 11:45:00,
2013-05-03 07:50:00,56.7,50.2,30.12,SE,135,0.9,1.6,79,0.00,,,0.00,WUHU216HW,2013-05-03 11:50:00,
2013-05-03 07:55:00,56.9,50.4,30.12,SE,135,1.1,1.1,79,0.00,,,0.00,WUHU216HW,2013-05-03 11:55:00,
2013-05-03 08:00:00,57.1,50.6,30.12,ESE,113,1.1,1.1,79,0.00,,,0.00,WUHU216HW,2013-05-03 12:00:00,
2013-05-03 08:05:00,57.2,50.8,30.12,ESE,113,0.7,1.1,79,0.00,,,0.00,WUHU216HW,2013-05-03 12:05:00,
2013-05-03 08:10:00,57.4,50.9,30.12,ESE,113,0.2,1.1,79,0.00,,,0.00,WUHU216HW,2013-05-03 12:10:00,
2013-05-03 08:15:00,57.4,50.9,30.12,SSE,158,0.7,1.1,79,0.00,,,0.00,WUHU216HW,2013-05-03 12:15:00,
2013-05-03 08:20:00,57.6,51.1,30.13,SSE,158,0.7,1.1,79,0.00,,,0.00,WUHU216HW,2013-05-03 12:20:00,
2013-05-03 08:25:00,57.8,51.3,30.13,SE,135,1.1,1.8,79,0.00,,,0.00,WUHU216HW,2013-05-03 12:25:00,
2013-05-03 08:30:00,58.0,51.1,30.12,NNE,23,0.4,1.8,78,0.00,,,0.00,WUHU216HW,2013-05-03 12:30:00,
2013-05-03 08:35:00,58.0,51.5,30.12,ESE,113,0.0,1.1,79,0.00,,,0.00,WUHU216HW,2013-05-03 12:35:00,
2013-05-03 08:40:00,58.3,51.5,30.12,SE,135,0.9,1.8,78,0.00,,,0.00,WUHU216HW,2013-05-03 12:40:00,
2013-05-03 08:45:00,58.7,51.8,30.12,ESE,113,1.3,2.2,78,0.00,,,0.00,WUHU216HW,2013-05-03 12:45:00,
2013-05-03 08:50:00,59.0,51.8,30.12,SE,135,0.7,2.9,77,0.00,,,0.00,WUHU216HW,2013-05-03 12:50:00,
2013-05-03 08:55:00,59.4,51.8,30.12,SE,135,0.9,2.9,76,0.00,,,0.00,WUHU216HW,2013-05-03 12:55:00,
2013-05-03 09:00:00,59.6,52.0,30.12,SSE,158,1.1,2.5,76,0.00,,,0.00,WUHU216HW,2013-05-03 13:00:00,
2013-05-03 09:05:00,59.9,52.4,30.12,SE,135,1.6,2.5,76,0.00,,,0.00,WUHU216HW,2013-05-03 13:05:00,
2013-05-03 09:10:00,60.1,52.2,30.12,WSW,248,1.8,1.8,75,0.00,,,0.00,WUHU216HW,2013-05-03 13:10:00,
2013-05-03 09:15:00,60.5,52.2,30.12,ESE,113,2.5,2.7,74,0.00,,,0.00,WUHU216HW,2013-05-03 13:15:00,
2013-05-03 09:20:00,60.7,52.0,30.12,SSE,158,1.1,2.7,73,0.00,,,0.00,WUHU216HW,2013-05-03 13:20:00,
2013-05-03 09:25:00,60.7,52.0,30.12,ESE,113,0.4,2.5,73,0.00,,,0.00,WUHU216HW,2013-05-03 13:25:00,
2013-05-03 09:30:00,60.7,52.0,30.12,SE,135,1.8,2.7,73,0.00,,,0.00,WUHU216HW,2013-05-03 13:30:00,
2013-05-03 09:35:00,60.7,52.0,30.12,ENE,68,0.2,2.7,73,0.00,,,0.00,WUHU216HW,2013-05-03 13:35:00,
2013-05-03 09:40:00,60.7,52.0,30.12,SW,225,1.6,2.5,73,0.00,,,0.00,WUHU216HW,2013-05-03 13:40:00,
2013-05-03 09:45:00,60.8,52.2,30.11,SE,135,0.7,2.5,73,0.00,,,0.00,WUHU216HW,2013-05-03 13:45:00,
2013-05-03 09:50:00,60.8,52.2,30.11,SE,135,0.0,1.6,73,0.00,,,0.00,WUHU216HW,2013-05-03 13:50:00,
2013-05-03 09:55:00,61.0,52.4,30.11,SSE,158,1.1,2.0,73,0.00,,,0.00,WUHU216HW,2013-05-03 13:55:00,
2013-05-03 10:00:00,61.2,52.6,30.11,SE,135,0.9,2.0,73,0.00,,,0.00,WUHU216HW,2013-05-03 14:00:00,
2013-05-03 10:05:00,61.4,52.7,30.11,SSE,158,2.0,2.7,73,0.00,,,0.00,WUHU216HW,2013-05-03 14:05:00,
2013-05-03 10:10:00,61.6,52.5,30.11,South,180,1.1,2.7,72,0.00,,,0.00,WUHU216HW,2013-05-03 14:10:00,
2013-05-03 10:15:00,61.9,53.2,30.11,SE,135,1.1,2.7,73,0.00,,,0.00,WUHU216HW,2013-05-03 14:15:00,
2013-05-03 10:20:00,62.1,53.0,30.11,ESE,113,1.1,2.7,72,0.00,,,0.00,WUHU216HW,2013-05-03 14:20:00,
2013-05-03 10:25:00,62.5,53.3,30.11,SSE,158,1.1,2.2,72,0.00,,,0.00,WUHU216HW,2013-05-03 14:25:00,
2013-05-03 10:30:00,62.8,53.6,30.11,SSE,158,1.1,3.4,72,0.00,,,0.00,WUHU216HW,2013-05-03 14:30:00,
2013-05-03 10:35:00,63.0,53.5,30.11,SSE,158,1.3,3.4,71,0.00,,,0.00,WUHU216HW,2013-05-03 14:35:00,
2013-05-03 10:40:00,63.4,53.8,30.11,SSE,158,1.3,2.5,71,0.00,,,0.00,WUHU216HW,2013-05-03 14:40:00,
2013-05-03 10:45:00,63.5,53.6,30.11,East,90,1.3,2.7,70,0.00,,,0.00,WUHU216HW,2013-05-03 14:45:00,
2013-05-03 10:50:00,63.9,54.0,30.11,ESE,113,1.1,2.7,70,0.00,,,0.00,WUHU216HW,2013-05-03 14:50:00,
2013-05-03 10:55:00,64.1,54.2,30.11,SSE,158,0.0,2.2,70,0.00,,,0.00,WUHU216HW,2013-05-03 14:55:00,
2013-05-03 11:00:00,64.4,54.5,30.11,ESE,113,1.1,2.5,70,0.00,,,0.00,WUHU216HW,2013-05-03 15:00:00,
2013-05-03 11:05:00,64.8,54.5,30.11,ESE,113,1.8,2.5,69,0.00,,,0.00,WUHU216HW,2013-05-03 15:05:00,
2013-05-03 11:10:00,65.0,55.0,30.11,SSW,203,3.1,3.1,70,0.00,,,0.00,WUHU216HW,2013-05-03 15:10:00,
2013-05-03 11:15:00,65.3,54.9,30.11,SSE,158,1.1,3.1,69,0.00,,,0.00,WUHU216HW,2013-05-03 15:15:00,
2013-05-03 11:20:00,65.5,54.6,30.10,SE,135,1.8,3.1,68,0.00,,,0.00,WUHU216HW,2013-05-03 15:20:00,
2013-05-03 11:25:00,65.7,54.5,30.11,East,90,1.8,2.9,67,0.00,,,0.00,WUHU216HW,2013-05-03 15:25:00,
2013-05-03 11:30:00,65.9,54.5,30.11,SSE,158,1.1,3.4,67,0.00,,,0.00,WUHU216HW,2013-05-03 15:30:00,
2013-05-03 11:35:00,66.1,54.7,30.11,South,180,0.7,3.4,67,0.00,,,0.00,WUHU216HW,2013-05-03 15:35:00,
2013-05-03 11:40:00,66.2,54.6,30.11,SE,135,1.1,2.2,66,0.00,,,0.00,WUHU216HW,2013-05-03 15:40:00,
2013-05-03 11:45:00,66.2,54.6,30.11,SSE,158,1.6,3.4,66,0.00,,,0.00,WUHU216HW,2013-05-03 15:45:00,
2013-05-03 11:50:00,66.2,54.6,30.11,SE,135,3.4,3.4,66,0.00,,,0.00,WUHU216HW,2013-05-03 15:50:00,
2013-05-03 11:55:00,66.4,54.3,30.10,SE,135,1.6,3.8,65,0.00,,,0.00,WUHU216HW,2013-05-03 15:55:00,
2013-05-03 12:00:00,66.4,54.3,30.10,SE,135,2.0,3.8,65,0.00,,,0.00,WUHU216HW,2013-05-03 16:00:00,
2013-05-03 12:05:00,66.4,54.3,30.10,SSE,158,2.0,3.4,65,0.00,,,0.00,WUHU216HW,2013-05-03 16:05:00,
2013-05-03 12:10:00,66.6,54.5,30.10,ESE,113,0.4,2.9,65,0.00,,,0.00,WUHU216HW,2013-05-03 16:10:00,
2013-05-03 12:15:00,66.8,55.0,30.10,South,180,1.1,2.5,66,0.00,,,0.00,WUHU216HW,2013-05-03 16:15:00,
2013-05-03 12:20:00,66.8,54.6,30.09,ESE,113,0.9,2.2,65,0.00,,,0.00,WUHU216HW,2013-05-03 16:20:00,
2013-05-03 12:25:00,67.0,54.8,30.09,West,270,0.7,2.5,65,0.00,,,0.00,WUHU216HW,2013-05-03 16:25:00,
2013-05-03 12:30:00,67.1,54.9,30.09,SE,135,1.1,2.9,65,0.00,,,0.00,WUHU216HW,2013-05-03 16:30:00,
2013-05-03 12:35:00,67.1,54.9,30.09,SSE,158,1.1,2.9,65,0.00,,,0.00,WUHU216HW,2013-05-03 16:35:00,
2013-05-03 12:40:00,67.1,54.9,30.09,SE,135,1.1,2.7,65,0.00,,,0.00,WUHU216HW,2013-05-03 16:40:00,
2013-05-03 12:45:00,67.1,54.9,30.09,ESE,113,0.4,2.9,65,0.00,,,0.00,WUHU216HW,2013-05-03 16:45:00,
2013-05-03 12:50:00,67.1,54.9,30.08,SE,135,2.0,2.9,65,0.00,,,0.00,WUHU216HW,2013-05-03 16:50:00,
2013-05-03 12:55:00,67.3,55.1,30.08,SSE,158,1.6,2.2,65,0.00,,,0.00,WUHU216HW,2013-05-03 16:55:00,
2013-05-03 13:00:00,67.3,55.1,30.08,SE,135,0.7,2.5,65,0.00,,,0.00,WUHU216HW,2013-05-03 17:00:00,
2013-05-03 13:05:00,67.7,55.0,30.07,South,180,3.8,3.8,64,0.00,,,0.00,WUHU216HW,2013-05-03 17:05:00,
2013-05-03 13:10:00,68.0,54.9,30.07,SE,135,1.6,4.7,63,0.00,,,0.00,WUHU216HW,2013-05-03 17:10:00,
2013-05-03 13:15:00,68.6,55.4,30.07,SE,135,4.0,4.7,63,0.00,,,0.00,WUHU216HW,2013-05-03 17:15:00,
2013-05-03 13:20:00,68.9,55.0,30.07,SSE,158,1.8,4.7,61,0.00,,,0.00,WUHU216HW,2013-05-03 17:20:00,
2013-05-03 13:25:00,69.5,55.5,30.06,South,180,2.2,4.7,61,0.00,,,0.00,WUHU216HW,2013-05-03 17:25:00,
2013-05-03 13:30:00,70.2,55.8,30.06,SE,135,1.8,4.7,60,0.00,,,0.00,WUHU216HW,2013-05-03 17:30:00,
2013-05-03 13:35:00,70.6,55.6,30.06,South,180,3.1,4.0,59,0.00,,,0.00,WUHU216HW,2013-05-03 17:35:00,
2013-05-03 13:40:00,70.6,54.1,30.06,ESE,113,1.3,4.0,56,0.00,,,0.00,WUHU216HW,2013-05-03 17:40:00,
2013-05-03 13:45:00,70.6,54.5,30.06,SSE,158,1.3,4.3,57,0.00,,,0.00,WUHU216HW,2013-05-03 17:45:00,
2013-05-03 13:50:00,70.7,54.3,30.06,SSE,158,2.9,6.3,56,0.00,,,0.00,WUHU216HW,2013-05-03 17:50:00,
2013-05-03 13:55:00,70.9,54.4,30.06,SSE,158,1.6,6.3,56,0.00,,,0.00,WUHU216HW,2013-05-03 17:55:00,
2013-05-03 14:00:00,70.9,53.9,30.05,SE,135,3.1,4.0,55,0.00,,,0.00,WUHU216HW,2013-05-03 18:00:00,
2013-05-03 14:05:00,70.9,53.4,30.05,ESE,113,2.5,4.7,54,0.00,,,0.00,WUHU216HW,2013-05-03 18:05:00,
2013-05-03 14:10:00,70.7,52.8,30.05,ESE,113,1.6,4.7,53,0.00,,,0.00,WUHU216HW,2013-05-03 18:10:00,
2013-05-03 14:15:00,70.4,51.9,30.05,SE,135,1.3,3.8,52,0.00,,,0.00,WUHU216HW,2013-05-03 18:15:00,
2013-05-03 14:20:00,70.2,51.8,30.05,SE,135,1.8,3.8,52,0.00,,,0.00,WUHU216HW,2013-05-03 18:20:00,
2013-05-03 14:25:00,70.2,51.2,30.05,SSE,158,2.7,4.0,51,0.00,,,0.00,WUHU216HW,2013-05-03 18:25:00,
2013-05-03 14:30:00,70.0,51.0,30.05,South,180,2.0,4.0,51,0.00,,,0.00,WUHU216HW,2013-05-03 18:30:00,
2013-05-03 14:35:00,70.0,50.6,30.05,SE,135,1.6,3.8,50,0.00,,,0.00,WUHU216HW,2013-05-03 18:35:00,
2013-05-03 14:40:00,70.2,50.8,30.05,NNW,338,2.5,3.8,50,0.00,,,0.00,WUHU216HW,2013-05-03 18:40:00,
2013-05-03 14:45:00,70.6,51.0,30.05,SSE,158,3.4,3.8,50,0.00,,,0.00,WUHU216HW,2013-05-03 18:45:00,
2013-05-03 14:50:00,70.7,51.2,30.05,SSE,158,1.3,3.8,50,0.00,,,0.00,WUHU216HW,2013-05-03 18:50:00,
2013-05-03 14:55:00,70.9,51.4,30.05,SE,135,1.8,3.4,50,0.00,,,0.00,WUHU216HW,2013-05-03 18:55:00,
2013-05-03 15:00:00,70.9,51.4,30.05,SW,225,1.3,3.4,50,0.00,,,0.00,WUHU216HW,2013-05-03 19:00:00,
2013-05-03 15:05:00,70.6,50.5,30.05,SE,135,4.7,4.7,49,0.00,,,0.00,WUHU216HW,2013-05-03 19:05:00,
2013-05-03 15:10:00,70.4,50.9,30.05,SE,135,2.2,4.7,50,0.00,,,0.00,WUHU216HW,2013-05-03 19:10:00,
2013-05-03 15:15:00,70.2,50.8,30.05,SE,135,1.1,4.7,50,0.00,,,0.00,WUHU216HW,2013-05-03 19:15:00,
2013-05-03 15:20:00,70.4,51.4,30.04,SSE,158,2.2,3.6,51,0.00,,,0.00,WUHU216HW,2013-05-03 19:20:00,
2013-05-03 15:25:00,70.4,50.9,30.04,SW,225,2.7,4.0,50,0.00,,,0.00,WUHU216HW,2013-05-03 19:25:00,
2013-05-03 15:30:00,70.4,50.9,30.04,ESE,113,2.9,4.0,50,0.00,,,0.00,WUHU216HW,2013-05-03 19:30:00,
2013-05-03 15:35:00,70.6,51.0,30.04,ESE,113,0.4,3.4,50,0.00,,,0.00,WUHU216HW,2013-05-03 19:35:00,
2013-05-03 15:40:00,70.6,51.0,30.03,South,180,1.1,3.1,50,0.00,,,0.00,WUHU216HW,2013-05-03 19:40:00,
2013-05-03 15:45:00,70.6,51.6,30.03,ESE,113,2.2,2.5,51,0.00,,,0.00,WUHU216HW,2013-05-03 19:45:00,
2013-05-03 15:50:00,70.6,51.6,30.03,ESE,113,4.5,4.5,51,0.00,,,0.00,WUHU216HW,2013-05-03 19:50:00,
2013-05-03 15:55:00,70.4,51.9,30.03,SSE,158,2.0,5.4,52,0.00,,,0.00,WUHU216HW,2013-05-03 19:55:00,
2013-05-03 16:00:00,70.7,52.2,30.03,SE,135,1.1,5.4,52,0.00,,,0.00,WUHU216HW,2013-05-03 20:00:00,
2013-05-03 16:05:00,71.3,52.8,30.03,ESE,113,2.5,4.9,52,0.00,,,0.00,WUHU216HW,2013-05-03 20:05:00,
2013-05-03 16:10:00,71.3,52.8,30.03,SE,135,1.8,4.9,52,0.00,,,0.00,WUHU216HW,2013-05-03 20:10:00,
2013-05-03 16:15:00,70.9,52.4,30.03,SE,135,2.9,4.5,52,0.00,,,0.00,WUHU216HW,2013-05-03 20:15:00,
2013-05-03 16:20:00,71.1,52.6,30.03,SE,135,3.1,5.1,52,0.00,,,0.00,WUHU216HW,2013-05-03 20:20:00,
2013-05-03 16:25:00,71.1,53.0,30.03,SE,135,0.9,5.1,53,0.00,,,0.00,WUHU216HW,2013-05-03 20:25:00,
2013-05-03 16:30:00,70.9,52.9,30.03,SW,225,2.2,4.0,53,0.00,,,0.00,WUHU216HW,2013-05-03 20:30:00,
2013-05-03 16:35:00,70.9,52.9,30.03,SSE,158,1.8,4.0,53,0.00,,,0.00,WUHU216HW,2013-05-03 20:35:00,
2013-05-03 16:40:00,70.9,52.9,30.03,SSE,158,1.8,6.0,53,0.00,,,0.00,WUHU216HW,2013-05-03 20:40:00,
2013-05-03 16:45:00,70.9,53.4,30.03,SSE,158,2.5,6.0,54,0.00,,,0.00,WUHU216HW,2013-05-03 20:45:00,
2013-05-03 16:50:00,71.3,53.7,30.03,SSE,158,2.5,6.5,54,0.00,,,0.00,WUHU216HW,2013-05-03 20:50:00,
2013-05-03 16:55:00,71.3,53.2,30.03,SW,225,2.9,6.5,53,0.00,,,0.00,WUHU216HW,2013-05-03 20:55:00,
2013-05-03 17:00:00,70.9,52.9,30.03,SSE,158,4.7,5.1,53,0.00,,,0.00,WUHU216HW,2013-05-03 21:00:00,
2013-05-03 17:05:00,70.4,52.4,30.03,SE,135,2.0,5.6,53,0.00,,,0.00,WUHU216HW,2013-05-03 21:05:00,
2013-05-03 17:10:00,69.8,51.9,30.03,WSW,248,3.8,5.6,53,0.00,,,0.00,WUHU216HW,2013-05-03 21:10:00,
2013-05-03 17:15:00,69.1,51.8,30.04,South,180,1.8,5.1,54,0.00,,,0.00,WUHU216HW,2013-05-03 21:15:00,
2013-05-03 17:20:00,69.1,52.2,30.05,SE,135,4.7,5.1,55,0.00,,,0.00,WUHU216HW,2013-05-03 21:20:00,
2013-05-03 17:25:00,69.1,52.2,30.04,SE,135,4.7,4.9,55,0.00,,,0.00,WUHU216HW,2013-05-03 21:25:00,
2013-05-03 17:30:00,68.9,51.6,30.04,South,180,2.2,4.9,54,0.00,,,0.00,WUHU216HW,2013-05-03 21:30:00,
2013-05-03 17:35:00,68.9,51.6,30.04,SSE,158,2.2,4.7,54,0.00,,,0.00,WUHU216HW,2013-05-03 21:35:00,
2013-05-03 17:40:00,68.8,51.9,30.04,SSW,203,1.1,3.4,55,0.00,,,0.00,WUHU216HW,2013-05-03 21:40:00,
2013-05-03 17:45:00,68.6,51.8,30.03,SSE,158,2.9,3.4,55,0.00,,,0.00,WUHU216HW,2013-05-03 21:45:00,
2013-05-03 17:50:00,68.4,51.6,30.03,SSE,158,1.8,3.4,55,0.00,,,0.00,WUHU216HW,2013-05-03 21:50:00,
2013-05-03 17:55:00,68.0,50.8,30.02,SSE,158,2.5,3.1,54,0.00,,,0.00,WUHU216HW,2013-05-03 21:55:00,
2013-05-03 18:00:00,67.7,50.0,30.03,SE,135,1.8,4.3,53,0.00,,,0.00,WUHU216HW,2013-05-03 22:00:00,
2013-05-03 18:05:00,67.3,49.2,30.03,SE,135,2.2,4.3,52,0.00,,,0.00,WUHU216HW,2013-05-03 22:05:00,
2013-05-03 18:10:00,67.1,49.0,30.03,West,270,1.6,3.6,52,0.00,,,0.00,WUHU216HW,2013-05-03 22:10:00,
2013-05-03 18:15:00,67.0,48.8,30.03,SSE,158,2.5,4.0,52,0.00,,,0.00,WUHU216HW,2013-05-03 22:15:00,
2013-05-03 18:20:00,66.8,48.2,30.03,SE,135,1.3,4.7,51,0.00,,,0.00,WUHU216HW,2013-05-03 22:20:00,
2013-05-03 18:25:00,66.4,48.3,30.03,ESE,113,1.6,4.7,52,0.00,,,0.00,WUHU216HW,2013-05-03 22:25:00,
2013-05-03 18:30:00,66.2,48.2,30.03,SE,135,1.8,6.9,52,0.00,,,0.00,WUHU216HW,2013-05-03 22:30:00,
2013-05-03 18:35:00,66.1,48.0,30.03,SSE,158,2.7,6.9,52,0.00,,,0.00,WUHU216HW,2013-05-03 22:35:00,
2013-05-03 18:40:00,65.9,47.8,30.03,South,180,3.4,4.7,52,0.00,,,0.00,WUHU216HW,2013-05-03 22:40:00,
2013-05-03 18:45:00,65.9,48.2,30.03,SSW,203,1.8,4.5,53,0.00,,,0.00,WUHU216HW,2013-05-03 22:45:00,
2013-05-03 18:50:00,65.7,48.1,30.03,SE,135,2.2,3.8,53,0.00,,,0.00,WUHU216HW,2013-05-03 22:50:00,
2013-05-03 18:55:00,65.7,48.1,30.03,SSE,158,1.6,4.7,53,0.00,,,0.00,WUHU216HW,2013-05-03 22:55:00,
2013-05-03 18:59:00,65.5,48.4,30.03,SE,135,3.1,7.8,54,0.00,,,0.00,WUHU216HW,2013-05-03 22:59:00,
2013-05-03 19:04:00,65.3,48.3,30.03,SE,135,1.6,7.8,54,0.00,,,0.00,WUHU216HW,2013-05-03 23:04:00,
2013-05-03 19:10:00,65.2,48.1,30.03,SE,135,2.5,4.3,54,0.00,,,0.00,WUHU216HW,2013-05-03 23:10:00,
2013-05-03 19:14:00,65.0,48.3,30.03,ESE,113,2.2,4.7,55,0.00,,,0.00,WUHU216HW,2013-05-03 23:14:00,
2013-05-03 19:19:00,65.0,48.8,30.03,ESE,113,2.5,5.4,56,0.00,,,0.00,WUHU216HW,2013-05-03 23:19:00,
2013-05-03 19:24:00,64.8,48.6,30.03,SSE,158,1.8,5.4,56,0.00,,,0.00,WUHU216HW,2013-05-03 23:24:00,
2013-05-03 19:29:00,64.6,48.4,30.04,ESE,113,2.5,3.1,56,0.00,,,0.00,WUHU216HW,2013-05-03 23:29:00,
2013-05-03 19:34:00,64.4,48.8,30.04,East,90,2.5,3.4,57,0.00,,,0.00,WUHU216HW,2013-05-03 23:34:00,
2013-05-03 19:39:00,64.3,48.6,30.04,SE,135,1.8,3.4,57,0.00,,,0.00,WUHU216HW,2013-05-03 23:39:00,
2013-05-03 19:44:00,64.1,48.4,30.04,SE,135,1.3,3.8,57,0.00,,,0.00,WUHU216HW,2013-05-03 23:44:00,
2013-05-03 19:49:00,63.9,48.8,30.04,SSE,158,1.8,3.8,58,0.00,,,0.00,WUHU216HW,2013-05-03 23:49:00,
2013-05-03 19:54:00,63.7,48.6,30.04,SE,135,1.6,2.5,58,0.00,,,0.00,WUHU216HW,2013-05-03 23:54:00,
2013-05-03 19:59:00,63.7,48.6,30.04,SSE,158,1.8,2.7,58,0.00,,,0.00,WUHU216HW,2013-05-03 23:59:00,
2013-05-03 20:04:00,63.5,48.4,30.04,SE,135,1.8,3.8,58,0.00,,,0.00,WUHU216HW,2013-05-04 00:04:00,
2013-05-03 20:09:00,63.5,48.4,30.04,SE,135,0.7,3.8,58,0.00,,,0.00,WUHU216HW,2013-05-04 00:09:00,
2013-05-03 20:14:00,63.4,48.2,30.04,SE,135,0.7,2.5,58,0.00,,,0.00,WUHU216HW,2013-05-04 00:14:00,
2013-05-03 20:19:00,63.4,48.8,30.05,SE,135,0.4,2.5,59,0.00,,,0.00,WUHU216HW,2013-05-04 00:19:00,
2013-05-03 20:24:00,63.2,48.6,30.04,SE,135,0.9,1.1,59,0.00,,,0.00,WUHU216HW,2013-05-04 00:24:00,
2013-05-03 20:29:00,63.0,48.4,30.05,SE,135,0.4,1.1,59,0.00,,,0.00,WUHU216HW,2013-05-04 00:29:00,
2013-05-03 20:34:00,63.0,48.4,30.05,SE,135,0.4,1.1,59,0.00,,,0.00,WUHU216HW,2013-05-04 00:34:00,
2013-05-03 20:39:00,62.8,48.2,30.05,SE,135,0.7,1.1,59,0.00,,,0.00,WUHU216HW,2013-05-04 00:39:00,
2013-05-03 20:44:00,62.6,48.6,30.04,SE,135,0.0,0.9,60,0.00,,,0.00,WUHU216HW,2013-05-04 00:44:00,
2013-05-03 20:49:00,62.6,48.6,30.04,SE,135,0.0,0.7,60,0.00,,,0.00,WUHU216HW,2013-05-04 00:49:00,
2013-05-03 20:54:00,62.3,48.7,30.04,SE,135,0.0,1.1,61,0.00,,,0.00,WUHU216HW,2013-05-04 00:54:00,
2013-05-03 20:59:00,62.3,48.7,30.04,SE,135,0.4,1.1,61,0.00,,,0.00,WUHU216HW,2013-05-04 00:59:00,
2013-05-03 21:04:00,62.1,48.5,30.04,SE,135,0.0,1.3,61,0.00,,,0.00,WUHU216HW,2013-05-04 01:04:00,
2013-05-03 21:09:00,62.1,48.5,30.03,SE,135,0.4,1.3,61,0.00,,,0.00,WUHU216HW,2013-05-04 01:09:00,
2013-05-03 21:14:00,62.1,48.5,30.03,ESE,113,0.0,1.1,61,0.00,,,0.00,WUHU216HW,2013-05-04 01:14:00,
2013-05-03 21:19:00,61.9,48.3,30.03,ESE,113,0.0,0.9,61,0.00,,,0.00,WUHU216HW,2013-05-04 01:19:00,
2013-05-03 21:24:00,61.9,48.8,30.03,SE,135,1.1,1.1,62,0.00,,,0.00,WUHU216HW,2013-05-04 01:24:00,
2013-05-03 21:29:00,61.7,48.3,30.03,SE,135,0.4,1.1,61,0.00,,,0.00,WUHU216HW,2013-05-04 01:29:00,
2013-05-03 21:34:00,61.6,48.1,30.03,SE,135,0.9,1.1,61,0.00,,,0.00,WUHU216HW,2013-05-04 01:34:00,
2013-05-03 21:39:00,61.6,48.1,30.03,SE,135,1.1,1.3,61,0.00,,,0.00,WUHU216HW,2013-05-04 01:39:00,
2013-05-03 21:44:00,61.4,47.9,30.04,SE,135,0.4,1.3,61,0.00,,,0.00,WUHU216HW,2013-05-04 01:44:00,
2013-05-03 21:49:00,61.2,47.7,30.04,SSW,203,1.1,1.3,61,0.00,,,0.00,WUHU216HW,2013-05-04 01:49:00,
2013-05-03 21:54:00,61.2,48.2,30.04,SE,135,0.9,1.3,62,0.00,,,0.00,WUHU216HW,2013-05-04 01:54:00,
2013-05-03 21:59:00,61.0,48.0,30.04,SE,135,0.4,1.3,62,0.00,,,0.00,WUHU216HW,2013-05-04 01:59:00,
2013-05-03 22:04:00,61.0,48.0,30.04,ESE,113,0.2,1.3,62,0.00,,,0.00,WUHU216HW,2013-05-04 02:04:00,
2013-05-03 22:09:00,61.0,48.0,30.04,SE,135,0.9,1.1,62,0.00,,,0.00,WUHU216HW,2013-05-04 02:09:00,
2013-05-03 22:14:00,61.0,48.0,30.04,ESE,113,0.4,1.1,62,0.00,,,0.00,WUHU216HW,2013-05-04 02:14:00,
2013-05-03 22:19:00,61.0,48.0,30.04,East,90,0.9,2.2,62,0.00,,,0.00,WUHU216HW,2013-05-04 02:19:00,
2013-05-03 22:24:00,61.0,48.0,30.04,East,90,2.2,2.7,62,0.00,,,0.00,WUHU216HW,2013-05-04 02:24:00,
2013-05-03 22:29:00,61.0,48.0,30.05,ESE,113,2.0,2.7,62,0.00,,,0.00,WUHU216HW,2013-05-04 02:29:00,
2013-05-03 22:34:00,61.0,48.0,30.04,ESE,113,0.7,2.7,62,0.00,,,0.00,WUHU216HW,2013-05-04 02:34:00,
2013-05-03 22:39:00,61.0,48.0,30.04,SE,135,0.7,1.8,62,0.00,,,0.00,WUHU216HW,2013-05-04 02:39:00,
2013-05-03 22:44:00,60.8,47.8,30.04,ESE,113,1.1,1.8,62,0.00,,,0.00,WUHU216HW,2013-05-04 02:44:00,
2013-05-03 22:49:00,60.8,47.8,30.04,South,180,1.1,2.2,62,0.00,,,0.00,WUHU216HW,2013-05-04 02:49:00,
2013-05-03 22:54:00,60.7,47.6,30.04,SE,135,0.7,2.2,62,0.00,,,0.00,WUHU216HW,2013-05-04 02:54:00,
2013-05-03 22:59:00,60.7,47.6,30.04,SE,135,0.4,1.1,62,0.00,,,0.00,WUHU216HW,2013-05-04 02:59:00,
2013-05-03 23:04:00,60.5,47.4,30.04,ESE,113,0.0,1.1,62,0.00,,,0.00,WUHU216HW,2013-05-04 03:04:00,
2013-05-03 23:09:00,60.5,47.4,30.04,East,90,0.2,0.7,62,0.00,,,0.00,WUHU216HW,2013-05-04 03:09:00,
2013-05-03 23:14:00,60.5,47.4,30.03,SE,135,0.4,0.9,62,0.00,,,0.00,WUHU216HW,2013-05-04 03:14:00,
2013-05-03 23:19:00,60.3,47.3,30.03,SE,135,0.4,1.6,62,0.00,,,0.00,WUHU216HW,2013-05-04 03:19:00,
2013-05-03 23:24:00,60.3,47.3,30.03,ESE,113,0.4,1.6,62,0.00,,,0.00,WUHU216HW,2013-05-04 03:24:00,
2013-05-03 23:29:00,60.1,47.1,30.03,ESE,113,0.4,1.1,62,0.00,,,0.00,WUHU216HW,2013-05-04 03:29:00,
2013-05-03 23:34:00,60.1,47.1,30.03,NE,45,0.7,1.1,62,0.00,,,0.00,WUHU216HW,2013-05-04 03:34:00,
2013-05-03 23:39:00,60.1,47.1,30.03,ENE,68,0.9,1.1,62,0.00,,,0.00,WUHU216HW,2013-05-04 03:39:00,
2013-05-03 23:44:00,59.9,46.9,30.03,ENE,68,1.1,1.1,62,0.00,,,0.00,WUHU216HW,2013-05-04 03:44:00,
2013-05-03 23:49:00,59.8,46.7,30.03,ENE,68,0.0,1.8,62,0.00,,,0.00,WUHU216HW,2013-05-04 03:49:00,
2013-05-03 23:54:00,59.8,46.7,30.03,ENE,68,0.0,1.8,62,0.00,,,0.00,WUHU216HW,2013-05-04 03:54:00,
2013-05-03 23:59:00,59.8,46.7,30.03,ESE,113,0.0,0.7,62,0.00,,,0.00,WUHU216HW,2013-05-04 03:59:00,